Time;durP1;ratioP1;P1;durP2;ratioP2;P2;SDS_P1;SDS_P2;PMS_P1;PMS_P2;Temp;Humidity;BMP_temperature;BMP_pressure;BME280_temperature;BME280_humidity;BME280_pressure;Samples;Min_cycle;Max_cycle;Signal;HPM_P1;HPM_P2
2022/01/05 00:01:27;;;;;;;0.30;0.30;;;1.80;99.90;;;;;;5029828;28;20068;-74
2022/01/05 00:03:53;;;;;;;5.75;1.42;;;1.90;99.90;;;;;;5029601;28;20084;-75
2022/01/05 00:06:19;;;;;;;0.63;0.63;;;1.90;99.90;;;;;;5024052;28;20041;-74
2022/01/05 00:08:44;;;;;;;0.30;0.30;;;1.90;99.90;;;;;;5029710;28;20029;-75
2022/01/05 00:11:10;;;;;;;3.10;1.30;;;1.90;99.90;;;;;;5013296;28;20128;-75
2022/01/05 00:13:37;;;;;;;9.30;1.35;;;1.90;99.90;;;;;;5019901;28;20072;-75
2022/01/05 00:16:03;;;;;;;2.40;1.42;;;1.90;99.90;;;;;;5029344;28;20099;-75
2022/01/05 00:18:28;;;;;;;0.50;0.50;;;1.90;99.90;;;;;;5029604;28;20050;-75
2022/01/05 00:20:55;;;;;;;2.55;0.40;;;1.90;99.90;;;;;;5024689;28;20042;-75
2022/01/05 00:23:21;;;;;;;1.00;0.75;;;1.90;99.90;;;;;;5029272;28;20033;-74
2022/01/05 00:25:47;;;;;;;0.30;0.30;;;1.90;99.90;;;;;;5029156;28;20087;-75
2022/01/05 00:28:13;;;;;;;0.57;0.57;;;1.90;99.90;;;;;;5027909;28;20045;-75
2022/01/05 00:30:38;;;;;;;3.92;1.88;;;2.00;99.90;;;;;;5018168;28;20549;-75
2022/01/05 00:33:04;;;;;;;7.05;1.67;;;2.00;99.90;;;;;;5029443;28;20795;-75
2022/01/05 00:35:30;;;;;;;0.40;0.40;;;2.10;99.90;;;;;;5028346;28;20051;-75
2022/01/05 00:37:55;;;;;;;5.93;2.25;;;2.10;99.90;;;;;;5029263;28;20080;-75
2022/01/05 00:40:21;;;;;;;12.50;2.75;;;2.10;99.90;;;;;;5036009;28;20049;-75
2022/01/05 00:42:47;;;;;;;6.97;1.10;;;2.10;99.90;;;;;;5020835;28;20045;-75
2022/01/05 00:45:13;;;;;;;0.60;0.60;;;2.20;99.90;;;;;;5029344;28;20477;-75
2022/01/05 00:47:39;;;;;;;5.65;2.00;;;2.30;99.90;;;;;;5022517;28;20049;-75
2022/01/05 00:50:06;;;;;;;2.83;0.95;;;2.30;99.90;;;;;;5060499;28;20416;-75
2022/01/05 00:52:32;;;;;;;12.05;2.08;;;2.30;99.90;;;;;;5028950;28;20065;-75
2022/01/05 00:54:57;;;;;;;5.68;1.67;;;2.40;99.90;;;;;;5012584;28;20417;-75
2022/01/05 00:57:23;;;;;;;19.27;3.10;;;2.50;99.90;;;;;;5022933;28;20121;-75
2022/01/05 00:59:49;;;;;;;2.47;1.00;;;2.60;99.90;;;;;;5025398;28;20536;-75
2022/01/05 01:02:14;;;;;;;8.05;1.85;;;2.70;99.90;;;;;;5029009;28;20037;-75
2022/01/05 01:04:40;;;;;;;8.85;2.58;;;2.70;99.90;;;;;;5029333;28;20029;-75
2022/01/05 01:07:06;;;;;;;14.77;1.95;;;2.80;99.90;;;;;;5019218;28;20030;-75
2022/01/05 01:09:32;;;;;;;16.17;1.85;;;2.80;99.90;;;;;;5029273;28;20037;-75
2022/01/05 01:11:57;;;;;;;9.23;1.83;;;2.90;99.90;;;;;;5028956;28;20505;-75
2022/01/05 01:14:24;;;;;;;13.10;3.25;;;3.00;99.90;;;;;;5028636;28;20041;-75
2022/01/05 01:16:49;;;;;;;6.65;1.60;;;3.10;99.90;;;;;;5023446;28;20060;-75
2022/01/05 01:19:15;;;;;;;11.40;1.60;;;3.10;99.90;;;;;;5029100;28;20049;-75
2022/01/05 01:21:41;;;;;;;2.60;1.48;;;3.10;99.90;;;;;;5028825;28;20395;-75
2022/01/05 01:24:07;;;;;;;7.38;1.80;;;3.20;99.90;;;;;;5027599;28;20072;-75
2022/01/05 01:26:33;;;;;;;3.72;1.05;;;3.20;99.90;;;;;;5023758;28;20041;-75
2022/01/05 01:29:00;;;;;;;8.38;2.25;;;3.20;99.90;;;;;;5028958;28;20041;-74
2022/01/05 01:31:26;;;;;;;14.32;2.92;;;3.20;99.90;;;;;;5037607;28;20052;-75
2022/01/05 01:33:52;;;;;;;13.55;2.63;;;3.20;99.90;;;;;;5028408;28;20501;-74
2022/01/05 01:36:18;;;;;;;6.55;2.65;;;3.20;99.90;;;;;;5012395;28;20049;-74
2022/01/05 01:38:44;;;;;;;7.57;1.67;;;3.20;99.90;;;;;;5021540;28;20609;-74
2022/01/05 01:41:11;;;;;;;2.72;0.93;;;3.20;99.90;;;;;;5060710;28;20042;-75
2022/01/05 01:43:37;;;;;;;7.68;1.65;;;3.20;99.90;;;;;;5028785;28;20099;-74
2022/01/05 01:46:04;;;;;;;12.50;1.95;;;3.10;99.90;;;;;;5028635;28;20041;-75
2022/01/05 01:48:31;;;;;;;36.17;2.65;;;3.10;99.90;;;;;;5024757;28;20046;-74
2022/01/05 01:50:56;;;;;;;7.22;1.80;;;3.10;99.90;;;;;;5028236;28;20049;-75
2022/01/05 01:53:22;;;;;;;3.33;1.65;;;3.10;99.90;;;;;;5028637;28;20056;-75
2022/01/05 01:55:49;;;;;;;3.03;1.42;;;3.00;99.90;;;;;;5025734;28;20128;-74
2022/01/05 01:58:19;;;;;;;12.02;3.30;;;3.00;99.90;;;;;;5053325;28;20444;-75
2022/01/05 02:00:45;;;;;;;0.47;0.47;;;2.90;99.90;;;;;;5028898;28;20049;-75
2022/01/05 02:03:14;;;;;;;17.00;2.25;;;2.80;99.90;;;;;;5027882;28;20375;-74
2022/01/05 02:05:40;;;;;;;2.75;0.90;;;2.80;99.90;;;;;;5019494;28;20498;-75
2022/01/05 02:08:06;;;;;;;0.90;0.63;;;2.80;99.90;;;;;;5041890;28;20110;-74
2022/01/05 02:10:31;;;;;;;0.30;0.30;;;2.70;99.90;;;;;;5028555;28;20042;-75
2022/01/05 02:12:58;;;;;;;6.55;1.90;;;2.70;99.90;;;;;;5028248;28;20049;-74
2022/01/05 02:15:23;;;;;;;2.30;0.50;;;2.70;99.90;;;;;;5019198;28;20042;-74
2022/01/05 02:18:20;;;;;;;14.30;3.08;;;2.80;99.90;;;;;;5059594;28;20060;-75
2022/01/05 02:20:47;;;;;;;2.63;1.52;;;2.80;99.90;;;;;;5032563;28;20042;-74
2022/01/05 02:23:12;;;;;;;5.53;1.77;;;2.90;99.90;;;;;;5025346;28;20176;-75
2022/01/05 02:25:38;;;;;;;3.42;0.88;;;3.00;99.90;;;;;;5025255;28;20163;-75
2022/01/05 02:28:04;;;;;;;7.20;1.58;;;3.00;99.90;;;;;;5032164;28;20049;-74
2022/01/05 02:30:31;;;;;;;10.32;1.92;;;3.10;99.90;;;;;;5026409;28;20502;-74
2022/01/05 02:32:57;;;;;;;12.25;2.75;;;3.20;99.90;;;;;;5031881;28;20448;-75
2022/01/05 02:35:24;;;;;;;11.10;2.45;;;3.30;99.90;;;;;;5031335;28;20045;-75
2022/01/05 02:37:52;;;;;;;8.77;2.03;;;3.30;99.90;;;;;;5031631;28;20535;-75
2022/01/05 02:40:21;;;;;;;4.05;1.58;;;3.40;99.90;;;;;;5026661;28;20052;-75
2022/01/05 02:42:48;;;;;;;13.27;3.28;;;3.40;99.90;;;;;;5025214;28;20310;-75
2022/01/05 02:45:14;;;;;;;12.23;2.88;;;3.50;99.90;;;;;;5010939;28;20044;-75
2022/01/05 02:47:41;;;;;;;12.60;3.00;;;3.50;99.90;;;;;;5031541;28;20045;-75
2022/01/05 02:50:08;;;;;;;10.07;2.53;;;3.50;99.90;;;;;;5031446;28;20037;-75
2022/01/05 02:52:34;;;;;;;22.88;2.25;;;3.60;99.90;;;;;;5022887;28;20172;-75
2022/01/05 02:55:00;;;;;;;13.32;2.70;;;3.60;99.90;;;;;;5031255;28;20507;-75
2022/01/05 02:57:26;;;;;;;7.05;1.77;;;3.60;99.90;;;;;;5030947;28;20049;-75
2022/01/05 02:59:53;;;;;;;12.93;1.85;;;3.60;99.90;;;;;;5030804;28;20500;-74
2022/01/05 03:02:19;;;;;;;13.15;2.13;;;3.60;99.90;;;;;;5023730;28;20408;-74
2022/01/05 03:04:44;;;;;;;7.97;2.55;;;3.60;99.90;;;;;;5030980;28;20120;-75
2022/01/05 03:07:10;;;;;;;4.50;0.95;;;3.70;99.90;;;;;;5030911;28;20045;-75
2022/01/05 03:09:36;;;;;;;13.65;2.00;;;3.80;99.90;;;;;;5029619;28;20077;-75
2022/01/05 03:12:02;;;;;;;8.13;2.08;;;3.90;99.90;;;;;;5031117;28;20146;-74
2022/01/05 03:14:28;;;;;;;5.90;1.98;;;4.00;99.90;;;;;;5021782;28;20543;-75
2022/01/05 03:16:55;;;;;;;10.23;2.28;;;4.00;99.90;;;;;;5019298;28;20042;-75
2022/01/05 03:19:21;;;;;;;17.00;2.67;;;4.20;99.90;;;;;;5023506;28;20057;-75
2022/01/05 03:21:47;;;;;;;11.57;2.22;;;4.30;99.90;;;;;;5030636;28;20046;-75
2022/01/05 03:24:12;;;;;;;10.45;2.53;;;4.30;99.90;;;;;;5030759;28;20597;-75
2022/01/05 03:26:38;;;;;;;18.25;2.30;;;4.40;99.90;;;;;;5030400;28;20037;-75
2022/01/05 03:29:04;;;;;;;11.25;2.67;;;4.40;99.90;;;;;;5020719;28;20045;-75
2022/01/05 03:31:30;;;;;;;8.55;2.25;;;4.40;99.90;;;;;;5018784;28;20045;-75
2022/01/05 03:33:55;;;;;;;10.30;2.80;;;4.40;99.90;;;;;;5030849;28;20547;-75
2022/01/05 03:36:21;;;;;;;9.70;2.05;;;4.40;99.90;;;;;;5029714;28;20132;-75
2022/01/05 03:38:47;;;;;;;5.70;1.98;;;4.40;99.90;;;;;;5022762;28;20046;-75
2022/01/05 03:41:12;;;;;;;11.57;2.15;;;4.40;99.90;;;;;;5019584;28;20047;-75
2022/01/05 03:43:39;;;;;;;8.18;2.63;;;4.50;99.90;;;;;;5030190;28;20037;-75
2022/01/05 03:46:05;;;;;;;19.23;3.08;;;4.40;99.90;;;;;;5030289;28;20375;-75
2022/01/05 03:48:30;;;;;;;13.68;3.13;;;4.40;99.90;;;;;;5027807;28;20121;-75
2022/01/05 03:50:56;;;;;;;11.65;2.53;;;4.40;99.90;;;;;;5025917;28;20119;-75
2022/01/05 03:53:22;;;;;;;9.80;2.42;;;4.50;99.90;;;;;;5029957;28;20410;-75
2022/01/05 03:55:48;;;;;;;7.70;2.22;;;4.60;99.90;;;;;;5030221;28;20077;-75
2022/01/05 03:58:15;;;;;;;8.23;2.22;;;4.60;99.90;;;;;;5022350;28;20045;-75
2022/01/05 04:00:43;;;;;;;10.88;2.35;;;4.60;99.90;;;;;;5013685;28;20052;-75
2022/01/05 04:03:09;;;;;;;16.60;3.08;;;4.60;99.90;;;;;;5030076;28;20033;-74
2022/01/05 04:05:35;;;;;;;8.73;2.53;;;4.60;99.90;;;;;;5020918;28;20435;-75
2022/01/05 04:08:01;;;;;;;7.15;1.80;;;4.70;99.90;;;;;;5043327;28;20520;-74
2022/01/05 04:10:27;;;;;;;8.85;1.55;;;4.70;99.90;;;;;;5028675;28;20088;-74
2022/01/05 04:12:53;;;;;;;10.45;1.70;;;4.70;99.90;;;;;;5030046;28;20080;-74
2022/01/05 04:15:19;;;;;;;2.25;1.08;;;4.60;99.90;;;;;;5026359;28;20037;-75
2022/01/05 04:17:45;;;;;;;5.03;1.83;;;4.60;99.90;;;;;;5029785;28;20052;-75
2022/01/05 04:20:12;;;;;;;4.88;1.80;;;4.60;99.90;;;;;;5013664;28;20432;-75
2022/01/05 04:22:38;;;;;;;12.80;3.10;;;4.50;99.90;;;;;;5029507;28;20124;-75
2022/01/05 04:25:05;;;;;;;11.80;1.63;;;4.30;99.90;;;;;;5062932;28;20041;-75
2022/01/05 04:27:31;;;;;;;8.23;1.88;;;4.20;99.90;;;;;;5029111;28;20065;-74
2022/01/05 04:29:56;;;;;;;3.67;1.52;;;4.10;99.90;;;;;;5040268;28;20145;-75
2022/01/05 04:32:22;;;;;;;9.43;1.30;;;3.90;99.90;;;;;;5029474;28;20091;-75
2022/01/05 04:34:48;;;;;;;16.60;1.83;;;3.90;99.90;;;;;;5029525;28;20073;-75
2022/01/05 04:37:13;;;;;;;3.17;1.25;;;3.80;99.90;;;;;;5029436;28;20033;-75
2022/01/05 04:39:39;;;;;;;4.75;1.20;;;3.80;99.90;;;;;;5023341;28;20030;-74
2022/01/05 04:42:05;;;;;;;8.75;2.25;;;3.80;99.90;;;;;;5037231;28;20136;-75
2022/01/05 04:44:32;;;;;;;5.78;1.67;;;3.80;99.90;;;;;;5028985;28;20707;-75
2022/01/05 04:46:57;;;;;;;10.85;2.00;;;3.80;99.90;;;;;;5028240;28;20127;-75
2022/01/05 04:49:23;;;;;;;22.88;1.90;;;3.80;99.90;;;;;;5026607;28;20100;-75
2022/01/05 04:51:49;;;;;;;4.80;2.10;;;3.80;99.90;;;;;;5029474;28;20410;-75
2022/01/05 04:54:15;;;;;;;15.95;2.70;;;3.80;99.90;;;;;;5029456;28;20041;-75
2022/01/05 04:56:41;;;;;;;12.68;3.13;;;3.70;99.90;;;;;;5026025;28;20426;-75
2022/01/05 04:59:06;;;;;;;11.25;2.45;;;3.70;99.90;;;;;;5041969;28;20506;-75
2022/01/05 05:01:32;;;;;;;12.90;3.35;;;3.70;99.90;;;;;;5028597;28;20045;-75
2022/01/05 05:03:58;;;;;;;13.82;2.50;;;3.70;99.90;;;;;;5028681;28;20387;-74
2022/01/05 05:06:24;;;;;;;22.15;3.90;;;3.80;99.90;;;;;;5022804;28;20033;-75
2022/01/05 05:08:50;;;;;;;6.75;1.75;;;3.80;99.90;;;;;;5028592;28;20052;-74
2022/01/05 05:11:16;;;;;;;6.78;2.00;;;3.90;99.90;;;;;;5012579;28;20076;-74
2022/01/05 05:13:42;;;;;;;10.80;2.63;;;3.90;99.90;;;;;;5019202;28;20046;-75
2022/01/05 05:16:08;;;;;;;11.38;3.42;;;4.00;99.90;;;;;;5028772;28;20550;-74
2022/01/05 05:18:34;;;;;;;23.13;3.08;;;4.10;99.90;;;;;;5029372;28;20468;-75
2022/01/05 05:21:01;;;;;;;15.07;3.90;;;4.20;99.90;;;;;;5029055;28;20122;-75
2022/01/05 05:23:28;;;;;;;10.68;2.45;;;4.30;99.90;;;;;;5023699;28;20045;-74
2022/01/05 05:25:54;;;;;;;9.48;2.45;;;4.30;99.90;;;;;;5028472;28;20099;-74
2022/01/05 05:28:20;;;;;;;3.05;1.58;;;4.40;99.90;;;;;;5029049;28;20045;-75
2022/01/05 05:30:46;;;;;;;20.30;3.22;;;4.40;99.90;;;;;;5027349;28;20037;-75
2022/01/05 05:33:12;;;;;;;11.55;2.58;;;4.40;99.90;;;;;;5028872;28;20137;-74
2022/01/05 05:35:41;;;;;;;6.80;1.92;;;4.40;99.90;;;;;;5028563;28;20468;-74
2022/01/05 05:38:07;;;;;;;6.18;1.27;;;4.40;99.90;;;;;;5039443;28;20100;-75
2022/01/05 05:40:33;;;;;;;14.15;3.08;;;4.40;99.90;;;;;;5020904;28;20045;-74
2022/01/05 05:42:59;;;;;;;11.70;3.28;;;4.30;99.90;;;;;;5028938;28;20040;-74
2022/01/05 05:45:25;;;;;;;17.48;3.13;;;4.30;99.90;;;;;;5011997;28;20075;-74
2022/01/05 05:47:51;;;;;;;13.50;2.85;;;4.40;99.90;;;;;;5019042;28;20724;-74
2022/01/05 05:50:17;;;;;;;13.90;2.75;;;4.40;99.90;;;;;;5028653;28;20049;-74
2022/01/05 05:52:42;;;;;;;16.52;3.67;;;4.40;99.90;;;;;;5028986;28;20707;-74
2022/01/05 05:55:09;;;;;;;12.73;2.58;;;4.40;99.90;;;;;;5026527;28;20073;-74
2022/01/05 05:57:34;;;;;;;10.55;2.15;;;4.40;99.90;;;;;;5032395;28;20110;-74
2022/01/05 06:00:00;;;;;;;12.32;2.78;;;4.40;99.90;;;;;;5032833;28;20037;-74
2022/01/05 06:02:26;;;;;;;5.13;1.50;;;4.40;99.90;;;;;;5030484;28;20092;-74
2022/01/05 06:04:52;;;;;;;8.10;2.10;;;4.40;99.90;;;;;;5032730;28;20044;-73
2022/01/05 06:07:17;;;;;;;8.38;2.15;;;4.50;99.90;;;;;;5031884;28;20129;-73
2022/01/05 06:09:43;;;;;;;5.50;1.52;;;4.40;99.90;;;;;;5032511;28;20037;-73
2022/01/05 06:12:09;;;;;;;14.00;2.28;;;4.40;99.90;;;;;;5023468;28;20700;-73
2022/01/05 06:14:35;;;;;;;9.98;2.13;;;4.30;99.90;;;;;;5032532;28;20553;-73
2022/01/05 06:17:00;;;;;;;13.93;2.72;;;4.40;99.90;;;;;;5031851;28;20041;-73
2022/01/05 06:19:26;;;;;;;3.28;1.88;;;4.40;99.90;;;;;;5015742;28;20081;-73
2022/01/05 06:21:52;;;;;;;18.38;3.08;;;4.40;99.90;;;;;;5025114;28;20509;-73
2022/01/05 06:24:18;;;;;;;8.82;1.45;;;4.40;99.90;;;;;;5032079;28;20053;-73
2022/01/05 06:26:45;;;;;;;11.80;2.50;;;4.40;99.90;;;;;;5031715;28;20121;-73
2022/01/05 06:29:13;;;;;;;16.10;3.00;;;4.50;99.90;;;;;;5024675;28;20469;-73
2022/01/05 06:31:40;;;;;;;13.80;2.97;;;4.50;99.90;;;;;;5025706;28;20041;-73
2022/01/05 06:34:06;;;;;;;23.75;2.30;;;4.60;99.90;;;;;;5031487;28;20053;-73
2022/01/05 06:36:32;;;;;;;16.58;3.13;;;4.60;99.90;;;;;;5014796;28;20122;-73
2022/01/05 06:38:57;;;;;;;3.30;1.00;;;4.70;99.90;;;;;;5019962;28;20057;-73
2022/01/05 06:41:23;;;;;;;6.20;2.05;;;4.70;99.90;;;;;;5031774;28;20044;-73
2022/01/05 06:43:49;;;;;;;11.38;1.98;;;4.70;99.90;;;;;;5014865;28;20532;-73
2022/01/05 06:46:15;;;;;;;13.48;2.30;;;4.70;99.90;;;;;;5029423;28;20048;-74
2022/01/05 06:48:41;;;;;;;5.00;1.73;;;4.70;99.90;;;;;;5031465;28;20077;-74
2022/01/05 06:51:06;;;;;;;12.02;2.78;;;4.80;99.90;;;;;;5031189;28;20056;-74
2022/01/05 06:53:32;;;;;;;7.20;1.65;;;4.80;99.90;;;;;;5027932;28;20098;-73
2022/01/05 06:55:58;;;;;;;2.92;0.98;;;4.70;99.90;;;;;;5025581;28;20046;-73
2022/01/05 06:58:23;;;;;;;9.55;2.50;;;4.70;99.90;;;;;;5042613;28;20045;-73
2022/01/05 07:00:49;;;;;;;9.68;1.77;;;4.70;99.90;;;;;;5031285;28;20037;-74
2022/01/05 07:03:15;;;;;;;1.20;1.00;;;4.70;99.90;;;;;;5027647;28;20060;-73
2022/01/05 07:05:41;;;;;;;4.05;1.05;;;4.60;99.90;;;;;;5013212;28;20124;-73
2022/01/05 07:08:07;;;;;;;7.05;1.95;;;4.60;99.90;;;;;;5028220;28;20537;-74
2022/01/05 07:10:33;;;;;;;3.80;0.90;;;4.60;99.90;;;;;;5031465;28;20041;-73
2022/01/05 07:12:59;;;;;;;7.25;2.08;;;4.60;99.90;;;;;;5014464;28;20410;-74
2022/01/05 07:15:25;;;;;;;0.43;0.43;;;4.60;99.90;;;;;;5030924;28;20038;-74
2022/01/05 07:17:51;;;;;;;12.25;1.55;;;4.60;99.90;;;;;;5018364;28;20049;-73
2022/01/05 07:20:17;;;;;;;9.68;1.30;;;4.60;99.90;;;;;;5013364;28;20072;-73
2022/01/05 07:22:43;;;;;;;6.70;1.27;;;4.60;99.90;;;;;;5014617;28;20045;-73
2022/01/05 07:25:09;;;;;;;1.50;0.90;;;4.60;99.90;;;;;;5030697;28;20064;-74
2022/01/05 07:27:36;;;;;;;4.40;1.35;;;4.60;99.90;;;;;;5030459;28;20041;-73
2022/01/05 07:30:04;;;;;;;6.20;1.58;;;4.60;99.90;;;;;;5020815;28;20041;-74
2022/01/05 07:32:30;;;;;;;12.30;2.15;;;4.70;99.90;;;;;;5023424;28;20124;-73
2022/01/05 07:34:57;;;;;;;16.08;1.40;;;4.70;99.90;;;;;;5030352;28;20458;-73
2022/01/05 07:37:22;;;;;;;6.10;1.25;;;4.70;99.90;;;;;;5030395;28;20060;-73
2022/01/05 07:39:49;;;;;;;10.30;2.63;;;4.80;99.90;;;;;;5022018;28;20037;-73
2022/01/05 07:42:15;;;;;;;2.13;0.70;;;4.80;99.90;;;;;;5029954;28;20103;-73
2022/01/05 07:44:40;;;;;;;8.82;2.33;;;4.80;99.90;;;;;;5030303;28;20037;-73
2022/01/05 07:47:07;;;;;;;10.98;1.48;;;4.80;99.90;;;;;;5030121;28;20128;-73
2022/01/05 07:49:33;;;;;;;5.35;1.65;;;4.70;99.90;;;;;;5026590;28;20454;-73
2022/01/05 07:51:59;;;;;;;6.50;1.00;;;4.70;99.90;;;;;;5030091;28;20085;-74
2022/01/05 07:54:25;;;;;;;4.00;2.90;;;4.80;99.90;;;;;;5030300;28;20399;-73
2022/01/05 07:56:51;;;;;;;3.88;1.77;;;4.90;99.90;;;;;;5019934;28;20053;-74
2022/01/05 07:59:16;;;;;;;5.20;1.05;;;5.00;99.90;;;;;;5030051;28;20060;-73
2022/01/05 08:01:42;;;;;;;7.82;1.95;;;5.00;99.90;;;;;;5027709;28;20041;-73
2022/01/05 08:04:08;;;;;;;10.10;1.60;;;5.20;99.90;;;;;;5021292;28;20489;-73
2022/01/05 08:06:36;;;;;;;7.75;1.80;;;5.20;99.90;;;;;;5021727;28;20037;-73
2022/01/05 08:09:02;;;;;;;12.85;2.17;;;5.30;99.90;;;;;;5029306;28;20108;-73
2022/01/05 08:11:28;;;;;;;7.97;1.23;;;5.30;99.90;;;;;;5046551;28;20041;-73
2022/01/05 08:13:54;;;;;;;1.85;0.70;;;5.30;99.90;;;;;;5027391;28;20486;-73
2022/01/05 08:16:20;;;;;;;2.47;1.88;;;5.30;99.90;;;;;;5019815;28;20053;-73
2022/01/05 08:18:46;;;;;;;13.27;1.50;;;5.30;99.90;;;;;;5044322;28;20049;-73
2022/01/05 08:21:12;;;;;;;8.10;1.98;;;5.40;99.90;;;;;;5020365;28;20076;-73
2022/01/05 08:23:38;;;;;;;1.40;0.77;;;5.40;99.90;;;;;;5023345;28;20052;-73
2022/01/05 08:26:05;;;;;;;9.73;1.83;;;5.30;99.90;;;;;;5030932;28;20096;-73
2022/01/05 08:28:32;;;;;;;3.15;1.25;;;5.40;99.90;;;;;;5029815;28;20107;-73
2022/01/05 08:30:58;;;;;;;0.45;0.45;;;5.40;99.90;;;;;;5016807;28;20482;-74
2022/01/05 08:33:24;;;;;;;0.60;0.45;;;5.40;99.90;;;;;;5022508;28;20049;-73
2022/01/05 08:35:50;;;;;;;5.38;1.58;;;5.40;99.90;;;;;;5024478;28;20052;-73
2022/01/05 08:38:16;;;;;;;2.75;1.30;;;5.40;99.90;;;;;;5025609;28;20038;-73
2022/01/05 08:40:43;;;;;;;5.97;1.50;;;5.40;99.90;;;;;;5028318;28;20045;-74
2022/01/05 08:43:11;;;;;;;8.32;1.63;;;5.50;99.90;;;;;;5011571;28;20124;-74
2022/01/05 08:45:37;;;;;;;11.57;1.67;;;5.60;99.90;;;;;;5058945;28;20075;-73
2022/01/05 08:48:03;;;;;;;8.65;1.35;;;5.60;99.90;;;;;;5028075;28;20037;-74
2022/01/05 08:50:32;;;;;;;6.55;1.38;;;5.70;99.90;;;;;;5029104;28;20045;-74
2022/01/05 08:53:00;;;;;;;16.50;2.22;;;5.70;99.90;;;;;;5015469;28;20045;-74
2022/01/05 08:55:34;;;;;;;12.40;1.77;;;5.80;99.90;;;;;;5026131;28;20052;-74
2022/01/05 08:58:00;;;;;;;3.80;1.33;;;5.90;99.90;;;;;;5032603;28;20147;-74
2022/01/05 09:00:26;;;;;;;7.45;2.22;;;6.00;99.90;;;;;;5017015;28;20136;-74
2022/01/05 09:02:53;;;;;;;14.93;1.95;;;6.10;99.90;;;;;;5028908;28;20048;-73
2022/01/05 09:05:18;;;;;;;1.58;1.02;;;6.10;99.90;;;;;;5023791;28;20064;-74
2022/01/05 09:07:45;;;;;;;5.22;1.60;;;6.10;99.90;;;;;;5007085;28;20065;-74
2022/01/05 09:10:11;;;;;;;3.30;1.30;;;6.10;99.90;;;;;;5047847;28;20037;-74
2022/01/05 09:12:37;;;;;;;5.32;1.92;;;6.00;99.90;;;;;;5054948;28;20061;-74
2022/01/05 09:15:04;;;;;;;2.78;1.38;;;5.90;99.90;;;;;;5020903;28;20029;-74
2022/01/05 09:17:30;;;;;;;7.65;1.60;;;5.90;99.90;;;;;;5045948;28;20037;-74
2022/01/05 09:19:56;;;;;;;2.08;0.90;;;5.90;99.90;;;;;;5060985;28;20580;-74
2022/01/05 09:22:23;;;;;;;1.67;0.65;;;5.90;99.90;;;;;;5009359;28;20041;-74
2022/01/05 09:24:50;;;;;;;6.38;1.70;;;5.80;99.90;;;;;;5001680;28;20042;-74
2022/01/05 09:27:17;;;;;;;5.75;1.52;;;5.90;99.90;;;;;;5023604;28;20081;-74
2022/01/05 09:29:43;;;;;;;17.40;1.92;;;6.10;99.90;;;;;;5015256;28;20989;-74
2022/01/05 09:32:09;;;;;;;4.03;0.95;;;6.40;99.90;;;;;;5055883;28;20069;-74
2022/01/05 09:34:37;;;;;;;7.03;1.35;;;6.60;99.90;;;;;;5027206;28;20072;-74
2022/01/05 09:37:10;;;;;;;6.55;1.65;;;6.80;99.90;;;;;;5012196;28;20204;-74
2022/01/05 09:42:22;;;;;;;3.63;0.95;;;7.00;99.90;;;;;;5053272;28;20391;-74
2022/01/05 09:44:49;;;;;;;12.13;2.17;;;7.00;99.90;;;;;;5032888;28;20131;-74
2022/01/05 09:47:25;;;;;;;5.82;2.08;;;7.10;99.90;;;;;;5021231;28;20044;-74
2022/01/05 09:49:58;;;;;;;11.68;2.25;;;7.10;99.90;;;;;;5016320;28;20080;-74
2022/01/05 09:52:25;;;;;;;13.30;2.13;;;7.20;99.90;;;;;;5024662;28;20049;-74
2022/01/05 09:54:53;;;;;;;1999.90;999.90;;;7.30;99.90;;;;;;5031601;28;20045;-74
2022/01/05 09:57:21;;;;;;;1999.90;999.90;;;7.40;99.90;;;;;;5027607;28;20048;-74
2022/01/05 09:59:47;;;;;;;1999.90;999.90;;;7.30;99.90;;;;;;5029538;28;20045;-74
2022/01/05 10:02:16;;;;;;;1999.90;999.90;;;7.10;99.90;;;;;;5022431;28;20413;-74
2022/01/05 10:04:43;;;;;;;1999.90;999.90;;;6.90;99.90;;;;;;5006696;28;20065;-74
2022/01/05 10:07:09;;;;;;;1999.90;999.90;;;6.80;99.90;;;;;;5015430;28;20076;-74
2022/01/05 10:09:44;;;;;;;1999.90;999.90;;;6.70;99.90;;;;;;5015825;28;20045;-74
2022/01/05 10:12:12;;;;;;;1999.90;999.90;;;6.80;99.90;;;;;;5048691;28;20041;-74
2022/01/05 10:14:42;;;;;;;1999.90;999.90;;;6.80;99.90;;;;;;5028287;28;20083;-74
2022/01/05 10:17:11;;;;;;;1999.90;999.90;;;6.80;99.90;;;;;;5047246;28;20045;-74
2022/01/05 10:19:38;;;;;;;1999.90;999.90;;;6.90;99.90;;;;;;5015655;28;20503;-74
2022/01/05 10:22:24;;;;;;;1999.90;999.90;;;7.00;99.90;;;;;;5021297;28;20104;-74
2022/01/05 10:24:50;;;;;;;1999.90;999.90;;;7.10;99.90;;;;;;5031463;28;20037;-74
2022/01/05 10:27:21;;;;;;;1999.90;999.90;;;7.20;99.90;;;;;;5031664;28;20045;-74
2022/01/05 10:29:55;;;;;;;1999.90;999.90;;;7.30;99.90;;;;;;5029841;28;20052;-74
2022/01/05 10:32:23;;;;;;;1999.90;999.90;;;7.40;99.90;;;;;;5011725;28;20048;-74
2022/01/05 10:35:09;;;;;;;1999.90;999.90;;;7.40;99.90;;;;;;5028894;28;20468;-74
2022/01/05 10:37:37;;;;;;;1999.90;999.90;;;7.40;99.90;;;;;;5031469;28;20045;-74
2022/01/05 10:40:22;;;;;;;1999.90;999.90;;;7.50;99.90;;;;;;5013505;28;20045;-74
2022/01/05 10:42:50;;;;;;;1999.90;999.90;;;7.60;99.90;;;;;;5017273;28;20053;-74
2022/01/05 10:45:37;;;;;;;1999.90;999.90;;;7.70;99.90;;;;;;5031893;28;20042;-73
2022/01/05 10:48:07;;;;;;;1999.90;999.90;;;7.90;99.90;;;;;;5022227;28;20486;-74
2022/01/05 10:50:34;;;;;;;1999.90;999.90;;;8.10;99.90;;;;;;5011652;28;20139;-74
2022/01/05 10:53:00;;;;;;;1999.90;999.90;;;8.20;99.90;;;;;;5015162;28;20564;-74
2022/01/05 10:55:28;;;;;;;1999.90;999.90;;;8.20;99.90;;;;;;5013048;28;20045;-74
2022/01/05 10:58:05;;;;;;;1999.90;999.90;;;8.20;99.90;;;;;;5031211;28;20052;-74
2022/01/05 11:00:43;;;;;;;1999.90;999.90;;;8.30;99.90;;;;;;5030996;28;20042;-73
2022/01/05 11:03:30;;;;;;;1999.90;999.90;;;8.30;99.90;;;;;;5014523;28;20413;-73
2022/01/05 11:06:19;;;;;;;1999.90;999.90;;;8.30;99.90;;;;;;5052264;28;20052;-74
2022/01/05 11:08:57;;;;;;;1999.90;999.90;;;8.30;99.90;;;;;;5011928;28;20592;-73
2022/01/05 11:11:38;;;;;;;1999.90;999.90;;;8.40;99.90;;;;;;5029143;28;20075;-73
2022/01/05 11:14:15;;;;;;;1999.90;999.90;;;8.30;99.90;;;;;;5013764;28;20394;-73
2022/01/05 11:16:44;;;;;;;1999.90;999.90;;;8.30;99.90;;;;;;5015164;28;20103;-73
2022/01/05 11:19:23;;;;;;;1999.90;999.90;;;8.30;99.90;;;;;;4993807;28;20060;-73
2022/01/05 11:22:12;;;;;;;1999.90;999.90;;;8.20;99.90;;;;;;5012414;28;20094;-73
2022/01/05 11:24:42;;;;;;;1999.90;999.90;;;8.20;99.90;;;;;;5020692;28;20045;-74
2022/01/05 11:27:20;;;;;;;1999.90;999.90;;;8.20;99.90;;;;;;5020883;28;20037;-73
2022/01/05 11:29:47;;;;;;;1999.90;999.90;;;8.30;99.90;;;;;;5014483;28;20040;-73
2022/01/05 11:32:17;;;;;;;1999.90;999.90;;;8.30;99.90;;;;;;5050505;28;20102;-73
2022/01/05 11:34:43;;;;;;;1999.90;999.90;;;8.30;99.90;;;;;;5019259;28;20049;-73
2022/01/05 11:37:10;;;;;;;1999.90;999.90;;;8.40;99.90;;;;;;5013656;28;20045;-73
2022/01/05 11:39:51;;;;;;;1999.90;999.90;;;8.50;99.90;;;;;;5016316;28;20458;-73
2022/01/05 11:42:25;;;;;;;1999.90;999.90;;;8.50;99.90;;;;;;5036707;28;20057;-73
2022/01/05 11:44:54;;;;;;;1999.90;999.90;;;8.50;99.90;;;;;;5047070;28;20052;-73
2022/01/05 11:47:24;;;;;;;1999.90;999.90;;;8.40;99.90;;;;;;5030054;28;20042;-73
2022/01/05 11:49:52;;;;;;;1999.90;999.90;;;8.30;99.90;;;;;;5022048;28;20037;-73
2022/01/05 11:52:18;;;;;;;1999.90;999.90;;;8.20;99.90;;;;;;5029549;28;20034;-74
2022/01/05 11:55:06;;;;;;;1999.90;999.90;;;8.20;99.90;;;;;;5013834;28;20402;-73
2022/01/05 11:57:32;;;;;;;1999.90;999.90;;;8.20;99.90;;;;;;5029617;28;20754;-73
2022/01/05 12:00:19;;;;;;;1999.90;999.90;;;8.20;99.90;;;;;;5043694;28;20045;-73
2022/01/05 12:02:45;;;;;;;1999.90;999.90;;;8.30;99.90;;;;;;5030121;28;20049;-73
2022/01/05 12:05:11;;;;;;;1999.90;999.90;;;8.30;99.90;;;;;;5047060;28;20111;-73
2022/01/05 12:07:45;;;;;;;1999.90;999.90;;;8.40;99.90;;;;;;5045143;28;20870;-73
2022/01/05 12:10:20;;;;;;;1999.90;999.90;;;8.40;99.90;;;;;;5030091;28;20079;-73
2022/01/05 12:13:05;;;;;;;1999.90;999.90;;;8.50;99.90;;;;;;5046436;28;20051;-73
2022/01/05 12:15:56;;;;;;;1999.90;999.90;;;8.60;99.90;;;;;;5023917;28;20069;-73
2022/01/05 12:18:27;;;;;;;1999.90;999.90;;;8.60;99.90;;;;;;5047251;28;20393;-73
2022/01/05 12:20:54;;;;;;;1999.90;999.90;;;8.50;99.90;;;;;;5013888;28;20045;-73
2022/01/05 12:23:27;;;;;;;1999.90;999.90;;;8.30;99.90;;;;;;5028615;28;20096;-73
2022/01/05 12:26:07;;;;;;;1999.90;999.90;;;8.30;99.90;;;;;;5029144;28;20047;-73
2022/01/05 12:28:49;;;;;;;1999.90;999.90;;;8.20;99.90;;;;;;5030129;28;20050;-73
2022/01/05 12:31:15;;;;;;;1999.90;999.90;;;8.20;99.90;;;;;;5026612;28;20506;-73
2022/01/05 12:33:46;;;;;;;1999.90;999.90;;;8.10;99.90;;;;;;5029960;28;20069;-73
2022/01/05 12:36:15;;;;;;;1999.90;999.90;;;8.10;99.90;;;;;;5013484;28;20437;-73
2022/01/05 12:38:48;;;;;;;1999.90;999.90;;;8.30;99.90;;;;;;5029520;28;20179;-73
2022/01/05 12:41:38;;;;;;;1999.90;999.90;;;8.40;99.90;;;;;;5036287;28;20131;-73
2022/01/05 12:44:16;;;;;;;1999.90;999.90;;;8.50;99.90;;;;;;5046529;28;20524;-73
2022/01/05 12:46:52;;;;;;;1999.90;999.90;;;8.50;99.90;;;;;;5028968;28;20116;-73
2022/01/05 12:49:33;;;;;;;1999.90;999.90;;;8.50;99.90;;;;;;5025231;28;20037;-73